createdAt,value
2023-04-15T00:01:52.870Z,100791.03
2023-04-15T00:04:20.594Z,100798.94
2023-04-15T00:06:53.119Z,100807.38
2023-04-15T00:09:20.631Z,100812.25
2023-04-15T00:11:47.244Z,100807.94
2023-04-15T00:14:13.926Z,100804.41
2023-04-15T00:16:40.802Z,100800.88
2023-04-15T00:19:07.295Z,100803.28
2023-04-15T00:21:34.000Z,100807.41
2023-04-15T00:24:01.186Z,100807.41
2023-04-15T00:26:27.994Z,100801.13
2023-04-15T00:28:54.469Z,100805.75
2023-04-15T00:31:21.017Z,100800.31
2023-04-15T00:33:47.899Z,100799.81
2023-04-15T00:36:14.625Z,100802.78
2023-04-15T00:38:41.408Z,100804.44
2023-04-15T00:41:09.056Z,100803.59
2023-04-15T00:43:35.710Z,100808.22
2023-04-15T00:46:04.885Z,100808.22
2023-04-15T00:48:32.348Z,100815.06
2023-04-15T00:50:59.181Z,100810.69
2023-04-15T00:53:25.804Z,100803.38
2023-04-15T00:55:52.842Z,100807.97
2023-04-15T00:58:19.484Z,100813.41
2023-04-15T01:00:46.719Z,100813.41
2023-04-15T01:03:14.111Z,100801.47
2023-04-15T01:05:41.654Z,100811.28
2023-04-15T01:08:08.253Z,100809.38
2023-04-15T01:10:36.009Z,100817.78
2023-04-15T01:13:03.500Z,100808.00
2023-04-15T01:15:30.766Z,100804.47
2023-04-15T01:17:59.293Z,100805.28
2023-04-15T01:20:26.199Z,100802.06
2023-04-15T01:22:54.542Z,100800.41
2023-04-15T01:25:32.885Z,100815.66
2023-04-15T01:27:59.727Z,100808.56
2023-04-15T01:30:27.169Z,100802.31
2023-04-15T01:32:53.935Z,100799.88
2023-04-15T01:35:21.556Z,100800.97
2023-04-15T01:37:48.623Z,100809.97
2023-04-15T01:40:15.464Z,100809.13
2023-04-15T01:42:42.009Z,100799.09
2023-04-15T01:45:09.271Z,100806.69
2023-04-15T01:47:35.805Z,100814.03
2023-04-15T01:50:02.320Z,100815.94
2023-04-15T01:52:28.845Z,100810.50
2023-04-15T01:54:55.298Z,100816.22
2023-04-15T01:57:22.019Z,100809.72
2023-04-15T01:59:48.471Z,100810.78
2023-04-15T02:02:15.518Z,100815.41
2023-04-15T02:04:42.035Z,100812.69
2023-04-15T02:07:08.613Z,100810.25
2023-04-15T02:09:35.101Z,100817.31
2023-04-15T02:12:01.874Z,100812.97
2023-04-15T02:14:28.332Z,100811.06
2023-04-15T02:16:54.882Z,100811.34
2023-04-15T02:19:21.435Z,100815.97
2023-04-15T02:21:47.955Z,100818.69
2023-04-15T02:24:14.420Z,100827.94
2023-04-15T02:26:41.085Z,100823.59
2023-04-15T02:29:07.729Z,100829.03
2023-04-15T02:31:37.077Z,100830.94
2023-04-15T02:34:04.424Z,100834.47
2023-04-15T02:36:31.901Z,100845.34
2023-04-15T02:38:58.669Z,100843.72
2023-04-15T02:41:27.916Z,100852.97
2023-04-15T02:43:54.814Z,100852.97
2023-04-15T02:46:22.864Z,100862.78
2023-04-15T02:48:50.111Z,100858.69
2023-04-15T02:51:20.000Z,100860.31
2023-04-15T02:53:49.518Z,100866.03
2023-04-15T02:56:17.310Z,100866.03
2023-04-15T02:58:45.784Z,100872.28
2023-04-15T03:01:12.632Z,100868.22
2023-04-15T03:03:39.229Z,100874.75
2023-04-15T03:06:06.122Z,100874.47
2023-04-15T03:08:33.995Z,100873.13
2023-04-15T03:11:00.918Z,100872.31
2023-04-15T03:13:27.514Z,100881.28
2023-04-15T03:15:54.528Z,100895.94
2023-04-15T03:18:21.530Z,100888.88
2023-04-15T03:20:47.962Z,100889.69
2023-04-15T03:23:14.468Z,100885.06
2023-04-15T03:25:41.026Z,100895.13
2023-04-15T03:28:07.531Z,100891.59
2023-04-15T03:30:34.110Z,100904.41
2023-04-15T03:33:00.599Z,100903.03
2023-04-15T03:35:27.073Z,100909.28
2023-04-15T03:37:53.553Z,100913.91
2023-04-15T03:40:21.466Z,100910.13
2023-04-15T03:42:47.962Z,100920.16
2023-04-15T03:45:14.591Z,100917.44
2023-04-15T03:47:41.180Z,100909.56
2023-04-15T03:50:08.519Z,100927.78
2023-04-15T03:52:35.019Z,100930.50
2023-04-15T03:55:01.663Z,100929.69
2023-04-15T03:57:28.092Z,100933.22
2023-04-15T03:59:54.643Z,100931.88
2023-04-15T04:02:21.643Z,100940.03
2023-04-15T04:04:48.387Z,100941.69
2023-04-15T04:07:16.653Z,100941.69
2023-04-15T04:09:43.209Z,100944.09
2023-04-15T04:12:09.693Z,100950.63
2023-04-15T04:14:36.192Z,100959.31
2023-04-15T04:17:02.723Z,100955.25
2023-04-15T04:19:30.127Z,100953.91
2023-04-15T04:21:56.600Z,100962.56
2023-04-15T04:24:23.121Z,100967.47
2023-04-15T04:26:49.565Z,100965.81
2023-04-15T04:29:16.330Z,100964.72
2023-04-15T04:31:43.198Z,100972.63
2023-04-15T04:34:09.729Z,100974.25
2023-04-15T04:36:36.605Z,100977.78
2023-04-15T04:39:03.428Z,100980.22
2023-04-15T04:41:30.271Z,100989.22
2023-04-15T04:43:56.711Z,100988.38
2023-04-15T04:46:23.869Z,100997.38
2023-04-15T04:48:50.496Z,101004.69
2023-04-15T04:51:17.051Z,101007.41
2023-04-15T04:53:43.527Z,101008.25
2023-04-15T04:56:10.031Z,101017.22
2023-04-15T04:58:36.687Z,101020.19
2023-04-15T05:01:03.496Z,101018.28
2023-04-15T05:03:30.183Z,101022.91
2023-04-15T05:05:56.976Z,101028.34
2023-04-15T05:08:23.539Z,101031.06
2023-04-15T05:10:50.089Z,101033.53
2023-04-15T05:13:16.618Z,101045.50
2023-04-15T05:15:43.354Z,101038.41
2023-04-15T05:18:10.109Z,101047.94
2023-04-15T05:20:36.735Z,101050.38
2023-04-15T05:23:03.288Z,101054.72
2023-04-15T05:25:30.002Z,101063.69
2023-04-15T05:27:56.514Z,101059.09
2023-04-15T05:30:23.048Z,101071.84
2023-04-15T05:32:50.194Z,101076.22
2023-04-15T05:35:17.546Z,101069.97
2023-04-15T05:37:44.027Z,101076.22
2023-04-15T05:40:11.411Z,101090.66
2023-04-15T05:42:38.173Z,101099.63
2023-04-15T05:45:09.033Z,101101.25
2023-04-15T05:47:37.525Z,101108.06
2023-04-15T05:50:05.185Z,101116.22
2023-04-15T05:52:32.029Z,101115.13
2023-04-15T05:54:58.545Z,101119.75
2023-04-15T05:57:25.119Z,101132.28
2023-04-15T05:59:52.829Z,101130.66
2023-04-15T06:02:19.405Z,101133.38
2023-04-15T06:04:45.991Z,101140.72
2023-04-15T06:07:12.500Z,101152.41
2023-04-15T06:09:39.006Z,101152.94
2023-04-15T06:12:06.885Z,101158.91
2023-04-15T06:14:33.421Z,101171.72
2023-04-15T06:17:00.019Z,101171.72
2023-04-15T06:19:26.495Z,101186.13
2023-04-15T06:21:52.979Z,101191.56
2023-04-15T06:24:19.527Z,101191.56
2023-04-15T06:26:46.037Z,101202.44
2023-04-15T06:29:12.521Z,101194.56
2023-04-15T06:31:39.004Z,101204.34
2023-04-15T06:34:05.663Z,101209.78
2023-04-15T06:36:32.628Z,101208.97
2023-04-15T06:38:59.308Z,101209.78
2023-04-15T06:41:26.018Z,101220.97
2023-04-15T06:43:52.643Z,101233.47
2023-04-15T06:46:19.241Z,101227.22
2023-04-15T06:48:45.726Z,101235.38
2023-04-15T06:51:12.672Z,101231.84
2023-04-15T06:53:41.159Z,101241.91
2023-04-15T06:56:09.641Z,101244.34
2023-04-15T06:58:36.457Z,101238.09
2023-04-15T07:01:03.565Z,101243.53
2023-04-15T07:03:32.566Z,101254.41
2023-04-15T07:05:59.745Z,101264.50
2023-04-15T07:08:26.476Z,101257.13
2023-04-15T07:10:54.181Z,101255.22
2023-04-15T07:13:20.718Z,101260.97
2023-04-15T07:15:47.185Z,101268.03
2023-04-15T07:18:14.026Z,101262.06
2023-04-15T07:20:40.565Z,101273.22
2023-04-15T07:23:07.077Z,101284.09
2023-04-15T07:25:33.714Z,101274.03
2023-04-15T07:28:00.359Z,101283.28
2023-04-15T07:30:26.847Z,101286.81
2023-04-15T07:32:53.548Z,101286.53
2023-04-15T07:35:21.436Z,101296.59
2023-04-15T07:37:48.591Z,101299.59
2023-04-15T07:40:16.173Z,101291.16
2023-04-15T07:42:43.564Z,101295.78
2023-04-15T07:45:10.581Z,101312.13
2023-04-15T07:47:37.238Z,101306.69
2023-04-15T07:50:04.107Z,101314.03
2023-04-15T07:52:30.695Z,101315.09
2023-04-15T07:54:57.255Z,101316.75
2023-04-15T07:57:23.830Z,101329.53
2023-04-15T07:59:50.689Z,101327.88
2023-04-15T08:02:17.553Z,101334.41
2023-04-15T08:04:44.312Z,101335.22
2023-04-15T08:07:11.107Z,101345.31
2023-04-15T08:09:37.689Z,101353.75
2023-04-15T08:12:04.506Z,101354.81
2023-04-15T08:14:31.100Z,101359.19
2023-04-15T08:16:57.634Z,101356.72
2023-04-15T08:19:24.342Z,101364.88
2023-04-15T08:21:52.076Z,101364.88
2023-04-15T08:24:18.820Z,101367.59
2023-04-15T08:26:46.966Z,101371.13
2023-04-15T08:29:13.875Z,101374.13
2023-04-15T08:31:40.635Z,101383.91
2023-04-15T08:34:07.214Z,101384.72
2023-04-15T08:36:33.753Z,101395.91
2023-04-15T08:39:02.244Z,101390.44
2023-04-15T08:41:40.973Z,101404.06
2023-04-15T08:44:07.537Z,101401.34
2023-04-15T08:46:37.396Z,101405.16
2023-04-15T08:49:05.310Z,101407.06
2023-04-15T08:51:33.689Z,101416.03
2023-04-15T08:54:01.534Z,101422.28
2023-04-15T08:56:30.929Z,101423.09
2023-04-15T08:58:58.070Z,101429.63
2023-04-15T09:01:25.578Z,101431.53
2023-04-15T09:03:54.694Z,101445.97
2023-04-15T09:06:22.411Z,101441.34
2023-04-15T09:08:50.414Z,101450.59
2023-04-15T09:11:19.996Z,101456.03
2023-04-15T09:13:46.871Z,101456.84
2023-04-15T09:16:14.378Z,101455.19
2023-04-15T09:18:41.488Z,101463.09
2023-04-15T09:21:15.971Z,101469.63
2023-04-15T09:24:01.890Z,101463.09
2023-04-15T09:26:36.596Z,101473.97
2023-04-15T09:29:13.861Z,101475.88
2023-04-15T09:31:41.723Z,101481.31
2023-04-15T09:34:08.600Z,101486.78
2023-04-15T09:36:55.136Z,101492.22
2023-04-15T09:39:21.699Z,101494.94
2023-04-15T09:42:05.227Z,101498.47
2023-04-15T09:44:31.767Z,101503.09
2023-04-15T09:46:58.305Z,101501.19
2023-04-15T09:49:24.791Z,101510.16
2023-04-15T09:52:04.109Z,101510.16
2023-04-15T09:54:38.907Z,101514.50
2023-04-15T09:57:07.260Z,101526.50
2023-04-15T09:59:33.993Z,101520.78
2023-04-15T10:02:01.080Z,101513.47
2023-04-15T10:04:28.745Z,101528.13
2023-04-15T10:06:56.282Z,101527.06
2023-04-15T10:09:22.948Z,101526.22
2023-04-15T10:11:50.311Z,101536.03
2023-04-15T10:14:18.359Z,101535.75
2023-04-15T10:16:49.032Z,101544.75
2023-04-15T10:19:18.996Z,101542.84
2023-04-15T10:21:46.131Z,101549.09
2023-04-15T10:24:13.286Z,101540.94
2023-04-15T10:26:40.285Z,101546.13
2023-04-15T10:29:07.141Z,101548.56
2023-04-15T10:31:34.150Z,101554.59
2023-04-15T10:34:05.231Z,101549.69
2023-04-15T10:36:32.592Z,101552.97
2023-04-15T10:38:59.202Z,101553.53
2023-04-15T10:41:29.888Z,101555.75
2023-04-15T10:44:01.161Z,101560.13
2023-04-15T10:46:40.377Z,101554.41
2023-04-15T10:49:16.709Z,101562.56
2023-04-15T10:51:51.254Z,101569.66
2023-04-15T10:54:26.653Z,101561.78
2023-04-15T10:57:09.094Z,101578.09
2023-04-15T11:00:01.929Z,101572.41
2023-04-15T11:02:57.204Z,101578.69
2023-04-15T11:05:42.029Z,101593.09
2023-04-15T11:08:09.866Z,101583.31
2023-04-15T11:10:36.375Z,101590.91
2023-04-15T11:13:05.525Z,101592.59
2023-04-15T11:15:37.905Z,101592.31
2023-04-15T11:18:10.584Z,101589.59
2023-04-15T11:20:38.730Z,101597.50
2023-04-15T11:23:13.419Z,101615.19
2023-04-15T11:25:41.980Z,101598.63
2023-04-15T11:28:08.717Z,101602.69
2023-04-15T11:30:37.463Z,101608.13
2023-04-15T11:33:06.929Z,101605.97
2023-04-15T11:35:33.626Z,101608.44
2023-04-15T11:38:11.910Z,101603.78
2023-04-15T11:40:38.975Z,101616.34
2023-04-15T11:43:11.390Z,101613.34
2023-04-15T11:45:48.144Z,101610.34
2023-04-15T11:48:14.782Z,101623.97
2023-04-15T11:50:41.617Z,101616.38
2023-04-15T11:53:11.866Z,101624.25
2023-04-15T11:55:49.379Z,101624.81
2023-04-15T11:58:22.428Z,101630.00
2023-04-15T12:00:54.354Z,101627.84
2023-04-15T12:03:29.348Z,101629.47
2023-04-15T12:06:12.712Z,101636.56
2023-04-15T12:09:07.203Z,101648.28
2023-04-15T12:11:36.877Z,101649.34
2023-04-15T12:14:26.040Z,101648.28
2023-04-15T12:16:55.052Z,101657.28
2023-04-15T12:19:27.422Z,101653.47
2023-04-15T12:22:00.413Z,101665.75
2023-04-15T12:24:27.485Z,101666.00
2023-04-15T12:26:57.780Z,101669.53
2023-04-15T12:29:29.053Z,101672.53
2023-04-15T12:32:05.089Z,101676.09
2023-04-15T12:34:33.561Z,101679.38
2023-04-15T12:37:02.147Z,101689.19
2023-04-15T12:39:32.783Z,101681.56
2023-04-15T12:42:00.436Z,101685.94
2023-04-15T12:44:28.025Z,101689.22
2023-04-15T12:46:55.015Z,101694.13
2023-04-15T12:49:22.377Z,101708.03
2023-04-15T12:51:49.573Z,101705.03
2023-04-15T12:54:17.634Z,101701.78
2023-04-15T12:56:48.707Z,101718.69
2023-04-15T12:59:17.875Z,101719.22
2023-04-15T13:01:45.351Z,101720.88
2023-04-15T13:04:12.005Z,101731.22
2023-04-15T13:06:38.715Z,101715.47
2023-04-15T13:09:06.119Z,101728.59
2023-04-15T13:11:36.639Z,101739.50
2023-04-15T13:14:08.763Z,101729.13
2023-04-15T13:16:35.573Z,101736.25
2023-04-15T13:19:03.698Z,101740.59
2023-04-15T13:21:34.839Z,101739.25
2023-04-15T13:24:01.786Z,101740.88
2023-04-15T13:26:28.289Z,101746.06
2023-04-15T13:28:54.791Z,101744.16
2023-04-15T13:31:21.406Z,101743.91
2023-04-15T13:33:48.067Z,101750.72
2023-04-15T13:36:14.666Z,101756.72
2023-04-15T13:38:41.411Z,101764.63
2023-04-15T13:41:07.931Z,101767.34
2023-04-15T13:43:34.536Z,101765.19
2023-04-15T13:46:01.371Z,101763.00
2023-04-15T13:48:28.850Z,101757.31
2023-04-15T13:50:55.385Z,101777.50
2023-04-15T13:53:21.907Z,101774.78
2023-04-15T13:56:04.696Z,101784.88
2023-04-15T13:58:31.388Z,101795.78
2023-04-15T14:00:58.099Z,101780.00
2023-04-15T14:03:24.845Z,101787.06
2023-04-15T14:05:55.924Z,101802.09
2023-04-15T14:08:23.043Z,101787.38
2023-04-15T14:10:49.818Z,101801.56
2023-04-15T14:13:16.503Z,101795.84
2023-04-15T14:15:43.033Z,101798.28
2023-04-15T14:18:09.884Z,101809.75
2023-04-15T14:20:36.626Z,101807.03
2023-04-15T14:23:03.143Z,101819.56
2023-04-15T14:25:33.716Z,101815.75
2023-04-15T14:28:01.303Z,101827.22
2023-04-15T14:30:27.840Z,101820.69
2023-04-15T14:32:54.481Z,101832.97
2023-04-15T14:35:21.205Z,101840.06
2023-04-15T14:37:47.688Z,101832.69
2023-04-15T14:40:14.188Z,101844.19
2023-04-15T14:42:40.679Z,101849.34
2023-04-15T14:45:07.741Z,101846.38
2023-04-15T14:47:34.367Z,101848.81
2023-04-15T14:50:00.910Z,101864.09
2023-04-15T14:52:27.476Z,101852.13
2023-04-15T14:54:54.015Z,101857.31
2023-04-15T14:57:20.604Z,101850.75
2023-04-15T14:59:47.131Z,101869.59
2023-04-15T15:02:17.257Z,101870.94
2023-04-15T15:04:53.046Z,101871.56
2023-04-15T15:07:19.752Z,101882.19
2023-04-15T15:09:46.261Z,101878.66
2023-04-15T15:12:12.852Z,101888.22
2023-04-15T15:14:39.308Z,101889.59
2023-04-15T15:17:06.134Z,101884.38
2023-04-15T15:19:33.085Z,101895.59
2023-04-15T15:21:59.635Z,101895.59
2023-04-15T15:24:26.194Z,101901.88
2023-04-15T15:26:52.745Z,101900.81
2023-04-15T15:29:19.279Z,101914.44
2023-04-15T15:31:45.877Z,101925.38
2023-04-15T15:34:12.552Z,101923.16
2023-04-15T15:36:39.135Z,101915.56
2023-04-15T15:39:06.105Z,101922.38
2023-04-15T15:41:33.368Z,101930.31
2023-04-15T15:44:00.134Z,101936.31
2023-04-15T15:46:28.109Z,101935.25
2023-04-15T15:48:55.332Z,101939.84
2023-04-15T15:51:21.895Z,101943.44
2023-04-15T15:53:48.392Z,101937.97
2023-04-15T15:56:15.257Z,101944.78
2023-04-15T15:58:45.017Z,101953.78
2023-04-15T16:01:11.944Z,101959.00
2023-04-15T16:03:39.144Z,101962.53
2023-04-15T16:06:05.789Z,101964.47
2023-04-15T16:08:32.530Z,101975.91
2023-04-15T16:10:59.216Z,101969.63
2023-04-15T16:13:26.383Z,101975.38
2023-04-15T16:15:53.141Z,101973.47
2023-04-15T16:18:19.687Z,101984.38
2023-04-15T16:20:46.210Z,101990.09
2023-04-15T16:23:15.952Z,101995.84
2023-04-15T16:25:44.414Z,101994.19
2023-04-15T16:28:25.087Z,101988.50
2023-04-15T16:30:53.555Z,101995.84
2023-04-15T16:33:20.157Z,102006.50
2023-04-15T16:35:46.649Z,102013.06
2023-04-15T16:38:13.170Z,102013.88
2023-04-15T16:40:39.691Z,102020.16
2023-04-15T16:43:11.222Z,102024.78
2023-04-15T16:45:38.003Z,102026.44
2023-04-15T16:48:04.825Z,102025.63
2023-04-15T16:50:31.603Z,102036.25
2023-04-15T16:52:58.093Z,102052.63
2023-04-15T16:55:24.697Z,102054.81
2023-04-15T16:58:01.836Z,102044.44
2023-04-15T17:00:31.318Z,102058.09
2023-04-15T17:02:58.392Z,102051.00
2023-04-15T17:05:25.139Z,102050.44
2023-04-15T17:07:51.779Z,102048.78
2023-04-15T17:10:18.276Z,102055.88
2023-04-15T17:12:44.918Z,102059.72
2023-04-15T17:15:11.466Z,102060.81
2023-04-15T17:17:38.069Z,102062.72
2023-04-15T17:20:05.333Z,102079.09
2023-04-15T17:22:32.149Z,102070.63
2023-04-15T17:24:58.869Z,102061.91
2023-04-15T17:27:27.577Z,102073.88
2023-04-15T17:29:54.593Z,102082.06
2023-04-15T17:32:22.632Z,102068.41
2023-04-15T17:34:51.374Z,102084.81
2023-04-15T17:37:18.616Z,102089.44
2023-04-15T17:39:45.349Z,102088.63
2023-04-15T17:42:12.118Z,102099.00
2023-04-15T17:44:38.894Z,102091.88
2023-04-15T17:47:05.892Z,102105.50
2023-04-15T17:49:34.181Z,102091.31
2023-04-15T17:52:01.262Z,102101.44
2023-04-15T17:54:27.928Z,102110.44
2023-04-15T17:56:54.507Z,102127.63
2023-04-15T17:59:21.213Z,102127.88
2023-04-15T18:01:47.870Z,102118.03
2023-04-15T18:04:14.750Z,102121.88
2023-04-15T18:06:41.544Z,102125.09
2023-04-15T18:09:11.461Z,102134.13
2023-04-15T18:11:40.046Z,102128.66
2023-04-15T18:14:06.710Z,102130.56
2023-04-15T18:16:33.566Z,102137.13
2023-04-15T18:19:00.208Z,102144.72
2023-04-15T18:21:27.160Z,102159.19
2023-04-15T18:23:53.721Z,102161.63
2023-04-15T18:26:21.673Z,102150.16
2023-04-15T18:28:48.278Z,102148.50
2023-04-15T18:31:14.861Z,102155.84
2023-04-15T18:33:41.477Z,102164.31
2023-04-15T18:36:08.046Z,102162.16
2023-04-15T18:38:34.614Z,102168.34
2023-04-15T18:41:01.329Z,102161.50
2023-04-15T18:43:27.970Z,102165.56
2023-04-15T18:45:54.953Z,102161.44
2023-04-15T18:48:21.693Z,102169.63
2023-04-15T18:50:49.040Z,102170.44
2023-04-15T18:53:15.562Z,102192.53
2023-04-15T18:55:42.078Z,102188.19
2023-04-15T18:58:09.364Z,102192.81
2023-04-15T19:00:40.288Z,102188.41
2023-04-15T19:03:07.691Z,102197.69
2023-04-15T19:05:34.254Z,102201.25
2023-04-15T19:08:00.938Z,102197.38
2023-04-15T19:10:28.195Z,102204.75
2023-04-15T19:12:55.408Z,102217.56
2023-04-15T19:15:22.090Z,102205.25
2023-04-15T19:17:48.912Z,102210.47
2023-04-15T19:20:15.538Z,102217.84
2023-04-15T19:22:43.136Z,102215.34
2023-04-15T19:25:10.104Z,102212.88
2023-04-15T19:27:38.230Z,102215.63
2023-04-15T19:30:06.579Z,102214.53
2023-04-15T19:32:33.398Z,102214.25
2023-04-15T19:34:59.895Z,102223.78
2023-04-15T19:37:26.421Z,102227.59
2023-04-15T19:39:54.700Z,102228.66
2023-04-15T19:42:21.424Z,102226.22
2023-04-15T19:44:47.935Z,102222.66
2023-04-15T19:47:14.503Z,102230.84
2023-04-15T19:49:41.088Z,102230.84
2023-04-15T19:52:07.614Z,102229.44
2023-04-15T19:54:34.151Z,102220.94
2023-04-15T19:57:02.058Z,102224.50
2023-04-15T19:59:28.692Z,102233.19
2023-04-15T20:01:55.326Z,102234.84
2023-04-15T20:04:22.747Z,102227.72
2023-04-15T20:06:49.769Z,102237.81
2023-04-15T20:09:16.824Z,102235.91
2023-04-15T20:12:06.170Z,102240.00
2023-04-15T20:14:29.908Z,102234.59
2023-04-15T20:16:56.517Z,102232.69
2023-04-15T20:19:23.193Z,102239.44
2023-04-15T20:21:51.347Z,102234.22
2023-04-15T20:24:20.252Z,102227.94
2023-04-15T20:26:47.397Z,102237.78
2023-04-15T20:29:13.979Z,102235.53
2023-04-15T20:31:40.834Z,102247.22
2023-04-15T20:34:08.827Z,102237.97
2023-04-15T20:36:37.374Z,102239.03
2023-04-15T20:39:04.258Z,102236.81
2023-04-15T20:41:31.001Z,102239.53
2023-04-15T20:43:57.582Z,102244.19
2023-04-15T20:46:26.570Z,102243.59
2023-04-15T20:48:53.341Z,102241.94
2023-04-15T20:51:19.851Z,102243.84
2023-04-15T20:53:46.641Z,102245.75
2023-04-15T20:56:13.093Z,102239.50
2023-04-15T20:58:39.859Z,102246.25
2023-04-15T21:01:06.683Z,102250.91
2023-04-15T21:03:33.603Z,102246.53
2023-04-15T21:06:00.329Z,102250.31
2023-04-15T21:08:29.672Z,102260.41
2023-04-15T21:10:56.936Z,102258.75
2023-04-15T21:13:24.009Z,102261.47
2023-04-15T21:15:53.394Z,102253.03
2023-04-15T21:18:21.594Z,102248.63
2023-04-15T21:21:02.284Z,102243.16
2023-04-15T21:23:35.809Z,102264.38
2023-04-15T21:26:02.491Z,102257.84
2023-04-15T21:28:29.849Z,102262.47
2023-04-15T21:30:59.607Z,102277.44
2023-04-15T21:33:26.249Z,102273.63
2023-04-15T21:35:53.985Z,102286.44
2023-04-15T21:38:22.738Z,102280.41
2023-04-15T21:40:50.654Z,102273.31
2023-04-15T21:43:17.130Z,102276.59
2023-04-15T21:46:22.563Z,102283.41
2023-04-15T21:48:31.657Z,102285.50
2023-04-15T21:50:59.778Z,102284.94
2023-04-15T21:53:26.406Z,102285.78
2023-04-15T21:55:52.983Z,102293.13
2023-04-15T21:58:19.595Z,102284.94
2023-04-15T22:00:46.220Z,102288.72
2023-04-15T22:03:12.856Z,102283.28
2023-04-15T22:05:39.436Z,102290.91
2023-04-15T22:08:05.972Z,102287.34
2023-04-15T22:10:32.558Z,102291.13
2023-04-15T22:13:02.472Z,102279.41
2023-04-15T22:15:29.181Z,102289.47
2023-04-15T22:17:55.693Z,102305.00
2023-04-15T22:20:22.256Z,102299.81
2023-04-15T22:22:48.842Z,102297.09
2023-04-15T22:25:20.980Z,102304.69
2023-04-15T22:27:47.478Z,102306.59
2023-04-15T22:30:14.030Z,102298.91
2023-04-15T22:32:40.811Z,102304.38
2023-04-15T22:35:07.781Z,102313.34
2023-04-15T22:37:34.283Z,102312.78
2023-04-15T22:40:01.964Z,102302.94
2023-04-15T22:42:28.504Z,102305.66
2023-04-15T22:44:54.984Z,102314.69
2023-04-15T22:47:21.471Z,102312.22
2023-04-15T22:49:47.997Z,102321.19
2023-04-15T22:52:23.366Z,102312.47
2023-04-15T22:54:56.417Z,102317.09
2023-04-15T22:57:22.933Z,102326.31
2023-04-15T22:59:49.546Z,102326.31
2023-04-15T23:02:16.361Z,102325.50
2023-04-15T23:04:43.018Z,102328.22
2023-04-15T23:07:09.632Z,102329.31
2023-04-15T23:09:36.098Z,102342.09
2023-04-15T23:12:03.027Z,102340.47
2023-04-15T23:14:30.152Z,102337.97
2023-04-15T23:16:57.726Z,102336.88
2023-04-15T23:19:24.888Z,102340.69
2023-04-15T23:21:51.490Z,102345.31
2023-04-15T23:24:17.996Z,102344.50
2023-04-15T23:26:44.535Z,102346.41
2023-04-15T23:29:11.290Z,102342.00
2023-04-15T23:31:38.014Z,102349.94
2023-04-15T23:34:04.645Z,102344.72
2023-04-15T23:36:31.973Z,102335.72
2023-04-15T23:38:58.643Z,102339.53
2023-04-15T23:41:25.185Z,102330.53
2023-04-15T23:43:51.773Z,102337.06
2023-04-15T23:46:18.402Z,102337.06
2023-04-15T23:48:44.876Z,102333.50
2023-04-15T23:51:11.353Z,102334.34
2023-04-15T23:53:37.803Z,102332.69
2023-04-15T23:56:04.591Z,102341.38
2023-04-15T23:58:32.897Z,102345.75
